createdAt,value
2019-06-10T00:00:44.237Z,17.24
2019-06-10T00:11:27.871Z,17.16
2019-06-10T00:22:11.518Z,17.17
2019-06-10T00:32:52.930Z,17.03
2019-06-10T00:43:37.136Z,16.99
2019-06-10T00:54:21.917Z,17.01
2019-06-10T01:05:05.056Z,16.88
2019-06-10T01:15:46.839Z,16.82
2019-06-10T01:26:30.826Z,16.72
2019-06-10T01:37:11.762Z,16.61
2019-06-10T01:47:53.882Z,16.46
2019-06-10T01:58:40.543Z,16.39
2019-06-10T02:09:23.173Z,16.23
2019-06-10T02:20:05.084Z,16.17
2019-06-10T02:30:55.422Z,16.00
2019-06-10T02:41:36.530Z,16.05
2019-06-10T02:52:16.038Z,16.10
2019-06-10T03:02:56.862Z,16.11
2019-06-10T03:13:35.865Z,15.99
2019-06-10T03:24:17.047Z,15.95
2019-06-10T03:35:05.012Z,15.93
2019-06-10T03:45:44.315Z,15.91
2019-06-10T03:56:23.183Z,15.80
2019-06-10T04:07:03.989Z,15.84
2019-06-10T04:17:45.974Z,15.64
2019-06-10T04:28:29.277Z,15.69
2019-06-10T04:39:08.303Z,15.67
2019-06-10T04:49:52.272Z,15.77
2019-06-10T05:00:34.990Z,15.80
2019-06-10T05:11:21.731Z,16.07
2019-06-10T05:22:04.065Z,16.39
2019-06-10T05:32:48.089Z,16.72
2019-06-10T05:43:34.249Z,17.15
2019-06-10T05:54:14.916Z,18.51
2019-06-10T06:04:59.087Z,18.14
2019-06-10T06:15:39.401Z,17.86
2019-06-10T06:26:24.174Z,18.50
2019-06-10T06:37:06.152Z,18.38
2019-06-10T06:47:52.759Z,18.82
2019-06-10T06:58:36.906Z,19.25
2019-06-10T07:09:19.142Z,20.00
2019-06-10T07:20:03.242Z,19.31
2019-06-10T07:30:41.542Z,19.52
2019-06-10T07:41:23.167Z,19.79
2019-06-10T07:52:15.576Z,19.92
2019-06-10T08:02:52.879Z,20.60
2019-06-10T08:13:35.280Z,20.97
2019-06-10T08:24:15.334Z,20.78
2019-06-10T08:34:53.326Z,21.55
2019-06-10T08:45:38.896Z,21.55
2019-06-10T08:56:24.571Z,22.02
2019-06-10T09:07:09.299Z,22.37
2019-06-10T09:17:55.333Z,22.57
2019-06-10T09:28:32.820Z,22.44
2019-06-10T09:39:19.127Z,23.41
2019-06-10T09:49:57.314Z,23.87
2019-06-10T10:00:40.877Z,24.16
2019-06-10T10:11:12.358Z,23.71
2019-06-10T10:21:56.059Z,24.17
2019-06-10T10:32:33.447Z,24.26
2019-06-10T10:43:25.277Z,25.04
2019-06-10T10:54:25.506Z,25.13
2019-06-10T11:04:36.474Z,24.87
2019-06-10T11:15:18.304Z,24.82
2019-06-10T11:25:57.191Z,25.15
2019-06-10T11:36:42.378Z,25.37
2019-06-10T11:47:24.434Z,25.48
2019-06-10T11:58:08.490Z,25.28
2019-06-10T12:08:44.280Z,25.63
2019-06-10T12:19:29.483Z,25.37
2019-06-10T12:30:14.405Z,26.16
2019-06-10T12:40:58.942Z,26.08
2019-06-10T12:51:40.432Z,26.09
2019-06-10T13:02:31.227Z,26.05
2019-06-10T13:13:09.394Z,25.81
2019-06-10T13:23:54.804Z,25.57
2019-06-10T13:34:37.669Z,25.89
2019-06-10T13:45:19.440Z,26.25
2019-06-10T13:56:30.413Z,26.23
2019-06-10T14:06:50.688Z,26.44
2019-06-10T14:17:32.790Z,26.15
2019-06-10T14:28:32.255Z,26.20
2019-06-10T14:38:53.243Z,26.09
2019-06-10T14:49:35.736Z,25.73
2019-06-10T15:00:18.203Z,25.29
2019-06-10T15:11:01.457Z,25.12
2019-06-10T15:21:46.699Z,25.25
2019-06-10T15:32:34.536Z,25.17
2019-06-10T15:43:18.194Z,25.72
2019-06-10T15:54:02.607Z,26.25
2019-06-10T16:04:44.283Z,25.99
2019-06-10T16:15:26.795Z,25.67
2019-06-10T16:26:13.150Z,25.03
2019-06-10T16:36:54.392Z,24.57
2019-06-10T16:47:38.636Z,24.11
2019-06-10T16:58:21.188Z,23.81
2019-06-10T17:09:03.541Z,23.92
2019-06-10T17:19:46.502Z,23.70
2019-06-10T17:30:30.016Z,23.13
2019-06-10T17:41:13.560Z,23.08
2019-06-10T17:51:54.869Z,22.80
2019-06-10T18:02:39.314Z,22.17
2019-06-10T18:13:22.814Z,22.17
2019-06-10T18:24:08.284Z,21.87
2019-06-10T18:34:52.084Z,21.90
2019-06-10T18:45:38.502Z,21.68
2019-06-10T18:56:17.825Z,21.47
2019-06-10T19:06:49.619Z,21.43
2019-06-10T19:17:33.147Z,21.29
2019-06-10T19:28:12.777Z,20.49
2019-06-10T19:38:57.517Z,20.29
2019-06-10T19:49:43.640Z,20.01
2019-06-10T20:00:23.479Z,19.65
2019-06-10T20:11:08.152Z,19.38
2019-06-10T20:21:49.644Z,19.18
2019-06-10T20:32:34.415Z,19.03
2019-06-10T20:43:19.408Z,18.80
2019-06-10T20:54:04.626Z,18.68
2019-06-10T21:04:48.784Z,18.62
2019-06-10T21:15:33.326Z,18.32
2019-06-10T21:26:14.594Z,18.08
2019-06-10T21:36:58.484Z,17.96
2019-06-10T21:47:44.486Z,17.78
2019-06-10T21:58:27.855Z,17.72
2019-06-10T22:09:12.592Z,17.57
2019-06-10T22:19:56.832Z,17.48
2019-06-10T22:21:08.717Z,17.56
2019-06-10T22:31:53.267Z,17.52
2019-06-10T22:42:33.687Z,17.46
2019-06-10T22:53:19.825Z,17.43
2019-06-10T23:04:03.763Z,17.29
2019-06-10T23:14:46.944Z,17.38
2019-06-10T23:25:32.634Z,17.41
2019-06-10T23:36:15.646Z,17.17
2019-06-10T23:46:55.243Z,17.08
2019-06-10T23:57:37.860Z,17.04
